createdAt,value
2018-05-23T00:00:18.907Z,956.86
2018-05-23T00:02:45.197Z,956.92
2018-05-23T00:05:11.527Z,956.91
2018-05-23T00:07:37.811Z,956.91
2018-05-23T00:12:48.213Z,956.94
2018-05-23T00:15:14.520Z,956.91
2018-05-23T00:17:40.807Z,956.86
2018-05-23T00:20:07.097Z,956.84
2018-05-23T00:22:33.383Z,956.82
2018-05-23T00:24:59.677Z,956.82
2018-05-23T00:27:25.963Z,956.83
2018-05-23T00:29:52.258Z,956.87
2018-05-23T00:32:18.542Z,956.91
2018-05-23T00:34:44.836Z,956.90
2018-05-23T00:37:11.171Z,956.91
2018-05-23T00:39:37.466Z,956.88
2018-05-23T00:42:03.756Z,956.88
2018-05-23T00:44:30.048Z,956.90
2018-05-23T00:46:56.334Z,956.94
2018-05-23T00:49:22.623Z,956.87
2018-05-23T00:51:48.917Z,956.82
2018-05-23T00:54:15.212Z,956.91
2018-05-23T00:56:41.515Z,956.90
2018-05-23T00:59:07.812Z,956.91
2018-05-23T01:01:34.115Z,956.93
2018-05-23T01:04:00.412Z,956.92
2018-05-23T01:06:26.747Z,956.94
2018-05-23T01:08:53.038Z,956.94
2018-05-23T01:11:19.329Z,956.99
2018-05-23T01:13:45.625Z,956.85
2018-05-23T01:16:11.971Z,956.87
2018-05-23T01:18:38.268Z,956.83
2018-05-23T01:21:04.566Z,956.81
2018-05-23T01:23:30.865Z,956.79
2018-05-23T01:28:23.228Z,956.79
2018-05-23T01:30:49.522Z,956.78
2018-05-23T01:33:15.808Z,956.74
2018-05-23T01:35:42.109Z,956.77
2018-05-23T01:38:08.449Z,956.83
2018-05-23T01:40:34.731Z,956.76
2018-05-23T01:43:01.026Z,956.74
2018-05-23T01:45:27.312Z,956.77
2018-05-23T01:47:53.594Z,956.80
2018-05-23T01:50:19.923Z,956.80
2018-05-23T01:52:46.221Z,956.81
2018-05-23T01:55:12.508Z,956.78
2018-05-23T01:57:38.835Z,956.79
2018-05-23T02:00:05.122Z,956.85
2018-05-23T02:02:31.409Z,956.75
2018-05-23T02:04:57.709Z,956.77
2018-05-23T02:07:23.999Z,956.72
2018-05-23T02:09:50.289Z,956.77
2018-05-23T02:12:16.576Z,956.78
2018-05-23T02:14:42.868Z,956.78
2018-05-23T02:17:09.161Z,956.75
2018-05-23T02:19:35.463Z,956.82
2018-05-23T02:22:01.749Z,956.71
2018-05-23T02:24:28.040Z,956.75
2018-05-23T02:26:54.337Z,956.80
2018-05-23T02:29:20.670Z,956.78
2018-05-23T02:31:46.957Z,956.83
2018-05-23T02:34:13.250Z,956.82
2018-05-23T02:36:39.540Z,956.83
2018-05-23T02:39:05.842Z,956.81
2018-05-23T02:41:32.131Z,956.77
2018-05-23T02:43:58.428Z,956.78
2018-05-23T02:46:24.716Z,956.80
2018-05-23T02:48:51.009Z,956.79
2018-05-23T02:51:17.305Z,956.83
2018-05-23T02:53:43.593Z,956.82
2018-05-23T02:56:09.889Z,956.76
2018-05-23T02:58:36.178Z,956.78
2018-05-23T03:01:02.473Z,956.79
2018-05-23T03:03:28.765Z,956.70
2018-05-23T03:05:55.055Z,956.70
2018-05-23T03:08:21.343Z,956.67
2018-05-23T03:10:47.638Z,956.77
2018-05-23T03:13:13.934Z,956.76
2018-05-23T03:15:40.226Z,956.77
2018-05-23T03:18:06.535Z,956.79
2018-05-23T03:20:32.871Z,956.82
2018-05-23T03:22:59.158Z,956.85
2018-05-23T03:25:25.459Z,956.82
2018-05-23T03:27:51.747Z,956.86
2018-05-23T03:30:18.046Z,956.90
2018-05-23T03:32:44.338Z,956.86
2018-05-23T03:35:10.632Z,956.92
2018-05-23T03:37:36.926Z,956.95
2018-05-23T03:40:03.214Z,956.99
2018-05-23T03:42:29.508Z,956.93
2018-05-23T03:44:55.795Z,957.00
2018-05-23T03:47:22.090Z,957.08
2018-05-23T03:49:48.464Z,957.09
2018-05-23T03:52:14.756Z,957.17
2018-05-23T03:54:41.052Z,957.11
2018-05-23T03:57:07.339Z,957.15
2018-05-23T03:59:33.627Z,957.15
2018-05-23T04:01:59.961Z,957.18
2018-05-23T04:04:26.295Z,957.20
2018-05-23T04:06:52.583Z,957.27
2018-05-23T04:09:18.883Z,957.28
2018-05-23T04:11:45.170Z,957.34
2018-05-23T04:14:11.498Z,957.30
2018-05-23T04:16:37.787Z,957.29
2018-05-23T04:19:04.076Z,957.33
2018-05-23T04:21:30.371Z,957.30
2018-05-23T04:23:56.657Z,957.22
2018-05-23T04:26:22.990Z,957.25
2018-05-23T04:28:49.277Z,957.22
2018-05-23T04:31:15.603Z,957.24
2018-05-23T04:33:41.898Z,957.26
2018-05-23T04:36:08.195Z,957.24
2018-05-23T04:38:34.511Z,957.27
2018-05-23T04:41:00.807Z,957.20
2018-05-23T04:43:27.104Z,957.28
2018-05-23T04:45:53.392Z,957.18
2018-05-23T04:48:19.687Z,957.27
2018-05-23T04:50:45.976Z,957.18
2018-05-23T04:53:12.311Z,957.16
2018-05-23T04:55:38.615Z,957.18
2018-05-23T04:58:04.962Z,957.25
2018-05-23T05:00:31.258Z,957.24
2018-05-23T05:02:57.552Z,957.22
2018-05-23T05:05:23.884Z,957.25
2018-05-23T05:07:50.170Z,957.22
2018-05-23T05:10:16.500Z,957.23
2018-05-23T05:12:42.787Z,957.23
2018-05-23T05:15:09.134Z,957.27
2018-05-23T05:17:35.426Z,957.27
2018-05-23T05:20:01.729Z,957.20
2018-05-23T05:22:28.015Z,957.21
2018-05-23T05:24:54.451Z,957.17
2018-05-23T05:27:20.664Z,957.25
2018-05-23T05:29:46.956Z,957.23
2018-05-23T05:32:13.265Z,957.30
2018-05-23T05:34:39.602Z,957.30
2018-05-23T05:37:05.903Z,957.30
2018-05-23T05:39:32.213Z,957.34
2018-05-23T05:41:58.514Z,957.27
2018-05-23T05:44:24.806Z,957.29
2018-05-23T05:46:51.148Z,957.30
2018-05-23T05:49:17.423Z,957.32
2018-05-23T05:51:43.719Z,957.38
2018-05-23T05:54:10.008Z,957.30
2018-05-23T05:56:36.316Z,957.38
2018-05-23T05:59:02.613Z,957.39
2018-05-23T06:01:28.903Z,957.39
2018-05-23T06:03:55.350Z,957.41
2018-05-23T06:06:21.651Z,957.48
2018-05-23T06:08:47.940Z,957.47
2018-05-23T06:11:14.232Z,957.45
2018-05-23T06:13:40.527Z,957.44
2018-05-23T06:16:06.819Z,957.49
2018-05-23T06:18:33.159Z,957.50
2018-05-23T06:20:59.429Z,957.47
2018-05-23T06:23:25.726Z,957.51
2018-05-23T06:25:52.022Z,957.53
2018-05-23T06:28:18.317Z,957.48
2018-05-23T06:30:44.637Z,957.48
2018-05-23T06:33:10.928Z,957.46
2018-05-23T06:35:37.225Z,957.48
2018-05-23T06:38:03.513Z,957.43
2018-05-23T06:40:29.823Z,957.41
2018-05-23T06:42:56.117Z,957.42
2018-05-23T06:45:22.417Z,957.41
2018-05-23T06:47:48.733Z,957.42
2018-05-23T06:50:15.039Z,957.35
2018-05-23T06:52:41.336Z,957.32
2018-05-23T06:55:07.624Z,957.28
2018-05-23T06:57:33.921Z,957.33
2018-05-23T07:00:00.213Z,957.23
2018-05-23T07:02:26.510Z,957.26
2018-05-23T07:04:52.800Z,957.27
2018-05-23T07:07:19.103Z,957.22
2018-05-23T07:09:45.436Z,957.30
2018-05-23T07:12:11.692Z,957.23
2018-05-23T07:14:37.981Z,957.22
2018-05-23T07:17:04.312Z,957.17
2018-05-23T07:19:30.698Z,957.15
2018-05-23T07:21:56.990Z,957.20
2018-05-23T07:24:23.281Z,957.13
2018-05-23T07:26:49.577Z,957.16
2018-05-23T07:29:15.911Z,957.18
2018-05-23T07:31:42.257Z,957.12
2018-05-23T07:34:08.496Z,957.02
2018-05-23T07:36:34.788Z,957.03
2018-05-23T07:39:01.097Z,957.07
2018-05-23T07:41:27.389Z,957.00
2018-05-23T07:43:53.717Z,956.98
2018-05-23T07:46:20.044Z,956.98
2018-05-23T07:48:46.295Z,956.99
2018-05-23T07:51:12.588Z,956.90
2018-05-23T07:53:38.875Z,956.92
2018-05-23T07:56:05.184Z,956.96
2018-05-23T07:58:31.468Z,956.90
2018-05-23T08:00:57.767Z,956.97
2018-05-23T08:03:24.063Z,956.86
2018-05-23T08:05:50.364Z,956.89
2018-05-23T08:08:16.687Z,956.84
2018-05-23T08:10:43.007Z,956.94
2018-05-23T08:13:09.304Z,956.91
2018-05-23T08:15:35.591Z,956.90
2018-05-23T08:18:01.920Z,956.85
2018-05-23T08:20:28.258Z,956.83
2018-05-23T08:22:54.554Z,956.88
2018-05-23T08:25:20.925Z,956.76
2018-05-23T08:27:47.213Z,956.79
2018-05-23T08:30:13.512Z,956.78
2018-05-23T08:32:39.804Z,956.78
2018-05-23T08:35:06.095Z,956.80
2018-05-23T08:37:32.420Z,956.75
2018-05-23T08:39:58.714Z,956.76
2018-05-23T08:42:25.000Z,956.70
2018-05-23T08:44:51.296Z,956.75
2018-05-23T08:47:17.584Z,956.72
2018-05-23T08:49:43.878Z,956.66
2018-05-23T08:52:10.183Z,956.70
2018-05-23T08:54:36.472Z,956.73
2018-05-23T08:57:02.771Z,956.79
2018-05-23T08:59:29.082Z,956.66
2018-05-23T09:01:55.378Z,956.69
2018-05-23T09:04:21.702Z,956.60
2018-05-23T09:06:48.005Z,956.56
2018-05-23T09:09:14.306Z,956.56
2018-05-23T09:11:40.601Z,956.53
2018-05-23T09:14:06.894Z,956.49
2018-05-23T09:16:33.189Z,956.53
2018-05-23T09:18:59.476Z,956.45
2018-05-23T09:21:25.773Z,956.44
2018-05-23T09:23:52.107Z,956.48
2018-05-23T09:26:18.400Z,956.43
2018-05-23T09:28:44.693Z,956.38
2018-05-23T09:31:10.985Z,956.37
2018-05-23T09:33:37.284Z,956.27
2018-05-23T09:36:03.584Z,956.28
2018-05-23T09:38:29.875Z,956.22
2018-05-23T09:40:56.178Z,956.18
2018-05-23T09:43:22.501Z,956.30
2018-05-23T09:45:48.807Z,956.21
2018-05-23T09:48:15.104Z,956.20
2018-05-23T09:50:45.822Z,956.11
2018-05-23T09:53:12.110Z,956.14
2018-05-23T09:55:38.415Z,956.06
2018-05-23T09:58:04.715Z,956.08
2018-05-23T10:00:31.003Z,956.14
2018-05-23T10:02:57.306Z,956.07
2018-05-23T10:05:23.607Z,956.03
2018-05-23T10:07:49.942Z,956.07
2018-05-23T10:10:16.239Z,956.02
2018-05-23T10:12:42.536Z,956.10
2018-05-23T10:15:08.835Z,955.94
2018-05-23T10:17:35.128Z,955.91
2018-05-23T10:20:01.420Z,955.92
2018-05-23T10:22:27.714Z,955.88
2018-05-23T10:24:53.998Z,955.84
2018-05-23T10:27:20.298Z,955.75
2018-05-23T10:29:46.588Z,955.68
2018-05-23T10:32:12.890Z,955.84
2018-05-23T10:34:39.182Z,955.71
2018-05-23T10:37:05.475Z,955.57
2018-05-23T10:39:31.767Z,955.57
2018-05-23T10:41:58.060Z,955.71
2018-05-23T10:44:24.360Z,955.52
2018-05-23T10:46:50.656Z,955.46
2018-05-23T10:49:16.950Z,955.43
2018-05-23T10:51:43.298Z,955.47
2018-05-23T10:54:09.580Z,955.32
2018-05-23T10:56:35.874Z,955.37
2018-05-23T10:59:02.175Z,955.37
2018-05-23T11:01:28.477Z,955.35
2018-05-23T11:03:54.775Z,955.27
2018-05-23T11:06:21.068Z,955.25
2018-05-23T11:08:47.368Z,955.24
2018-05-23T11:11:13.675Z,955.22
2018-05-23T11:13:39.998Z,955.22
2018-05-23T11:16:06.296Z,955.13
2018-05-23T11:18:32.586Z,955.22
2018-05-23T11:20:58.887Z,955.02
2018-05-23T11:23:25.177Z,955.05
2018-05-23T11:25:51.476Z,955.04
2018-05-23T11:28:17.769Z,954.98
2018-05-23T11:30:44.059Z,955.03
2018-05-23T11:33:10.376Z,954.89
2018-05-23T11:35:36.671Z,954.95
2018-05-23T11:38:02.974Z,954.94
2018-05-23T11:40:29.270Z,954.85
2018-05-23T11:42:55.607Z,954.80
2018-05-23T11:45:21.941Z,954.80
2018-05-23T11:47:48.271Z,954.80
2018-05-23T11:50:14.567Z,954.72
2018-05-23T11:52:40.854Z,954.74
2018-05-23T11:55:07.159Z,954.64
2018-05-23T11:57:33.453Z,954.66
2018-05-23T11:59:59.751Z,954.59
2018-05-23T12:02:26.040Z,954.71
2018-05-23T12:04:52.348Z,954.48
2018-05-23T12:07:18.642Z,954.47
2018-05-23T12:09:44.930Z,954.37
2018-05-23T12:12:11.279Z,954.46
2018-05-23T12:14:37.566Z,954.53
2018-05-23T12:17:03.867Z,954.43
2018-05-23T12:19:33.593Z,954.42
2018-05-23T12:24:29.966Z,954.40
2018-05-23T12:26:57.159Z,954.20
2018-05-23T12:29:23.483Z,954.23
2018-05-23T12:31:49.777Z,954.34
2018-05-23T12:34:16.072Z,954.20
2018-05-23T12:36:42.367Z,954.22
2018-05-23T12:39:08.659Z,954.12
2018-05-23T12:41:34.950Z,954.37
2018-05-23T12:44:01.243Z,954.09
2018-05-23T12:46:27.545Z,954.06
2018-05-23T12:48:53.846Z,954.15
2018-05-23T12:51:20.145Z,953.97
2018-05-23T12:53:46.470Z,953.97
2018-05-23T12:56:12.796Z,954.02
2018-05-23T12:58:39.099Z,953.95
2018-05-23T13:01:05.386Z,954.21
2018-05-23T13:03:31.776Z,954.10
2018-05-23T13:05:57.970Z,953.98
2018-05-23T13:08:24.294Z,954.06
2018-05-23T13:10:50.580Z,953.96
2018-05-23T13:13:16.866Z,954.07
2018-05-23T13:15:43.154Z,954.02
2018-05-23T13:18:09.442Z,953.97
2018-05-23T13:20:35.790Z,953.88
2018-05-23T13:23:02.085Z,953.91
2018-05-23T13:25:28.377Z,953.88
2018-05-23T13:27:54.712Z,953.95
2018-05-23T13:30:21.008Z,953.97
2018-05-23T13:32:47.307Z,953.96
2018-05-23T13:35:13.644Z,953.87
2018-05-23T13:37:39.941Z,953.92
2018-05-23T13:40:06.266Z,953.86
2018-05-23T13:42:32.601Z,954.00
2018-05-23T13:44:58.932Z,953.82
2018-05-23T13:47:25.220Z,953.87
2018-05-23T13:49:51.511Z,953.89
2018-05-23T13:52:17.810Z,953.85
2018-05-23T13:54:44.103Z,953.82
2018-05-23T13:57:10.392Z,953.84
2018-05-23T13:59:36.683Z,953.90
2018-05-23T14:02:02.989Z,953.93
2018-05-23T14:04:29.289Z,954.06
2018-05-23T14:06:55.595Z,954.00
2018-05-23T14:09:21.888Z,953.90
2018-05-23T14:11:48.187Z,954.03
2018-05-23T14:14:14.551Z,953.90
2018-05-23T14:16:40.777Z,954.09
2018-05-23T14:19:07.074Z,953.99
2018-05-23T14:21:33.352Z,954.14
2018-05-23T14:23:59.649Z,954.12
2018-05-23T14:26:25.940Z,954.03
2018-05-23T14:28:52.234Z,954.08
2018-05-23T14:31:18.522Z,954.01
2018-05-23T14:33:44.822Z,953.93
2018-05-23T14:36:11.116Z,954.05
2018-05-23T14:38:37.404Z,954.02
2018-05-23T14:41:03.697Z,954.08
2018-05-23T14:43:30.007Z,954.18
2018-05-23T14:45:56.274Z,954.10
2018-05-23T14:48:22.563Z,954.16
2018-05-23T14:50:48.851Z,954.17
2018-05-23T14:53:15.144Z,954.21
2018-05-23T14:55:41.432Z,954.31
2018-05-23T14:58:07.729Z,954.39
2018-05-23T15:00:34.013Z,954.30
2018-05-23T15:03:00.310Z,954.30
2018-05-23T15:05:26.599Z,954.29
2018-05-23T15:07:52.896Z,954.39
2018-05-23T15:10:19.240Z,954.35
2018-05-23T15:12:45.543Z,954.46
2018-05-23T15:15:11.851Z,954.36
2018-05-23T15:17:38.150Z,954.39
2018-05-23T15:20:04.461Z,954.46
2018-05-23T15:22:30.742Z,954.52
2018-05-23T15:24:57.039Z,954.45
2018-05-23T15:27:23.346Z,954.37
2018-05-23T15:29:49.629Z,954.41
2018-05-23T15:32:15.920Z,954.36
2018-05-23T15:34:42.211Z,954.32
2018-05-23T15:37:08.505Z,954.50
2018-05-23T15:39:34.798Z,954.25
2018-05-23T15:42:01.105Z,954.32
2018-05-23T15:44:27.402Z,954.32
2018-05-23T15:46:53.699Z,954.39
2018-05-23T15:49:19.995Z,954.36
2018-05-23T15:51:46.304Z,954.47
2018-05-23T15:54:12.591Z,954.28
2018-05-23T15:56:38.886Z,954.36
2018-05-23T15:59:05.184Z,954.34
2018-05-23T16:01:31.473Z,954.34
2018-05-23T16:03:57.765Z,954.38
2018-05-23T16:06:24.061Z,954.42
2018-05-23T16:08:50.364Z,954.30
2018-05-23T16:11:16.652Z,954.34
2018-05-23T16:13:42.941Z,954.35
2018-05-23T16:16:09.227Z,954.32
2018-05-23T16:18:35.519Z,954.31
2018-05-23T16:21:01.821Z,954.31
2018-05-23T16:23:28.156Z,954.34
2018-05-23T16:25:54.458Z,954.41
2018-05-23T16:28:20.787Z,954.36
2018-05-23T16:30:47.083Z,954.29
2018-05-23T16:33:13.387Z,954.33
2018-05-23T16:35:39.731Z,954.33
2018-05-23T16:38:06.035Z,954.26
2018-05-23T16:40:32.331Z,954.30
2018-05-23T16:42:58.629Z,954.34
2018-05-23T16:45:24.956Z,954.32
2018-05-23T16:47:51.248Z,954.35
2018-05-23T16:50:17.583Z,954.36
2018-05-23T16:52:43.874Z,954.36
2018-05-23T16:55:10.209Z,954.26
2018-05-23T16:57:36.503Z,954.29
2018-05-23T17:00:02.794Z,954.25
2018-05-23T17:02:29.091Z,954.25
2018-05-23T17:04:55.420Z,954.17
2018-05-23T17:07:21.848Z,954.16
2018-05-23T17:09:48.183Z,954.12
2018-05-23T17:12:14.514Z,954.03
2018-05-23T17:14:40.850Z,953.93
2018-05-23T17:17:07.155Z,953.90
2018-05-23T17:19:33.482Z,953.88
2018-05-23T17:21:59.774Z,953.85
2018-05-23T17:24:26.240Z,953.73
2018-05-23T17:26:52.611Z,953.62
2018-05-23T17:29:19.544Z,953.58
2018-05-23T17:31:45.815Z,953.57
2018-05-23T17:34:12.152Z,953.52
2018-05-23T17:36:39.504Z,953.45
2018-05-23T17:39:05.815Z,953.39
2018-05-23T17:41:32.132Z,953.39
2018-05-23T17:43:58.425Z,953.35
2018-05-23T17:46:24.747Z,953.35
2018-05-23T17:48:51.055Z,953.33
2018-05-23T17:51:17.681Z,953.26
2018-05-23T17:53:43.995Z,953.25
2018-05-23T17:56:10.286Z,953.15
2018-05-23T17:58:36.605Z,953.20
2018-05-23T18:01:02.906Z,953.11
2018-05-23T18:03:29.200Z,953.14
2018-05-23T18:05:55.493Z,953.11
2018-05-23T18:08:21.835Z,953.09
2018-05-23T18:10:48.128Z,953.08
2018-05-23T18:13:14.414Z,953.07
2018-05-23T18:15:40.704Z,953.15
2018-05-23T18:18:07.077Z,953.13
2018-05-23T18:20:33.338Z,953.11
2018-05-23T18:22:59.639Z,953.10
2018-05-23T18:25:25.933Z,953.09
2018-05-23T18:27:52.337Z,953.15
2018-05-23T18:30:18.594Z,953.14
2018-05-23T18:32:44.996Z,953.18
2018-05-23T18:35:11.336Z,953.20
2018-05-23T18:37:37.940Z,953.20
2018-05-23T18:40:04.242Z,953.30
2018-05-23T18:42:30.543Z,953.30
2018-05-23T18:44:56.838Z,953.31
2018-05-23T18:47:23.138Z,953.28
2018-05-23T18:49:49.470Z,953.31
2018-05-23T18:52:15.760Z,953.38
2018-05-23T18:54:42.051Z,953.41
2018-05-23T18:57:08.401Z,953.39
2018-05-23T18:59:34.672Z,953.41
2018-05-23T19:02:00.965Z,953.43
2018-05-23T19:04:27.251Z,953.53
2018-05-23T19:06:53.547Z,953.55
2018-05-23T19:09:19.841Z,953.68
2018-05-23T19:11:46.128Z,953.63
2018-05-23T19:14:12.512Z,953.71
2018-05-23T19:16:38.765Z,953.71
2018-05-23T19:19:05.113Z,953.74
2018-05-23T19:21:31.391Z,953.84
2018-05-23T19:23:57.730Z,953.89
2018-05-23T19:26:24.024Z,953.86
2018-05-23T19:28:50.314Z,953.85
2018-05-23T19:31:16.607Z,953.88
2018-05-23T19:33:42.908Z,954.00
2018-05-23T19:36:09.202Z,954.00
2018-05-23T19:38:35.487Z,954.00
2018-05-23T19:41:01.805Z,954.08
2018-05-23T19:43:28.100Z,954.05
2018-05-23T19:45:54.402Z,954.01
2018-05-23T19:48:20.700Z,954.03
2018-05-23T19:50:47.284Z,954.07
2018-05-23T19:53:13.769Z,954.07
2018-05-23T19:55:39.932Z,954.06
2018-05-23T19:58:06.221Z,954.06
2018-05-23T20:00:32.510Z,954.09
2018-05-23T20:02:58.801Z,954.06
2018-05-23T20:05:25.093Z,954.04
2018-05-23T20:07:51.395Z,954.09
2018-05-23T20:10:17.685Z,954.08
2018-05-23T20:12:43.977Z,954.11
2018-05-23T20:15:10.268Z,954.15
2018-05-23T20:17:36.555Z,954.17
2018-05-23T20:20:02.879Z,954.17
2018-05-23T20:22:29.337Z,954.17
2018-05-23T20:24:55.627Z,954.23
2018-05-23T20:27:21.919Z,954.26
2018-05-23T20:29:48.215Z,954.27
2018-05-23T20:32:14.503Z,954.25
2018-05-23T20:34:40.791Z,954.30
2018-05-23T20:37:07.080Z,954.34
2018-05-23T20:39:33.382Z,954.23
2018-05-23T20:41:59.671Z,954.32
2018-05-23T20:44:26.523Z,954.34
2018-05-23T20:46:52.716Z,954.26
2018-05-23T20:49:19.015Z,954.28
2018-05-23T20:51:45.310Z,954.31
2018-05-23T20:54:11.605Z,954.36
2018-05-23T20:56:37.904Z,954.29
2018-05-23T20:59:04.194Z,954.28
2018-05-23T21:01:30.490Z,954.25
2018-05-23T21:03:56.776Z,954.27
2018-05-23T21:06:23.075Z,954.27
2018-05-23T21:08:49.368Z,954.19
2018-05-23T21:11:15.667Z,954.22
2018-05-23T21:13:41.964Z,954.13
2018-05-23T21:16:08.256Z,954.16
2018-05-23T21:18:34.545Z,954.14
2018-05-23T21:21:00.876Z,954.11
2018-05-23T21:23:27.167Z,954.15
2018-05-23T21:25:53.460Z,954.18
2018-05-23T21:28:19.762Z,954.15
2018-05-23T21:30:46.055Z,954.16
2018-05-23T21:33:12.352Z,954.10
2018-05-23T21:35:38.689Z,954.11
2018-05-23T21:38:05.025Z,954.11
2018-05-23T21:40:31.327Z,954.07
2018-05-23T21:42:57.658Z,953.99
2018-05-23T21:45:23.991Z,954.02
2018-05-23T21:47:50.325Z,954.01
2018-05-23T21:50:16.642Z,953.97
2018-05-23T21:52:42.915Z,953.94
2018-05-23T21:55:09.273Z,953.96
2018-05-23T21:57:35.601Z,953.92
2018-05-23T22:00:01.904Z,953.91
2018-05-23T22:02:28.235Z,953.96
2018-05-23T22:04:54.518Z,953.95
2018-05-23T22:07:20.803Z,953.90
2018-05-23T22:09:47.108Z,953.94
2018-05-23T22:12:13.527Z,953.95
2018-05-23T22:17:23.933Z,953.99
2018-05-23T22:19:50.218Z,954.03
2018-05-23T22:22:16.504Z,954.03
2018-05-23T22:24:42.795Z,954.03
2018-05-23T22:27:09.087Z,954.06
2018-05-23T22:29:35.374Z,953.97
2018-05-23T22:32:01.671Z,954.02
2018-05-23T22:34:27.946Z,954.08
2018-05-23T22:36:54.240Z,954.11
2018-05-23T22:39:20.524Z,954.10
2018-05-23T22:41:46.818Z,954.07
2018-05-23T22:44:13.115Z,954.13
2018-05-23T22:46:39.448Z,954.04
2018-05-23T22:49:05.786Z,954.00
2018-05-23T22:51:32.073Z,953.97
2018-05-23T22:53:58.408Z,953.98
2018-05-23T22:56:24.703Z,953.95
2018-05-23T22:58:51.004Z,953.99
2018-05-23T23:01:17.295Z,953.94
2018-05-23T23:03:43.639Z,953.92
2018-05-23T23:06:09.928Z,953.90
2018-05-23T23:08:36.234Z,953.92
2018-05-23T23:11:02.528Z,953.87
2018-05-23T23:13:28.902Z,953.96
2018-05-23T23:15:55.242Z,954.01
2018-05-23T23:18:21.558Z,953.91
2018-05-23T23:20:47.875Z,953.93
2018-05-23T23:23:14.179Z,953.91
2018-05-23T23:25:40.496Z,953.90
2018-05-23T23:28:06.833Z,953.87
2018-05-23T23:30:33.171Z,953.89
2018-05-23T23:32:59.481Z,953.85
2018-05-23T23:35:25.795Z,953.77
2018-05-23T23:37:52.091Z,953.75
2018-05-23T23:40:18.403Z,953.70
2018-05-23T23:42:44.727Z,953.72
2018-05-23T23:45:11.030Z,953.66
2018-05-23T23:47:37.335Z,953.69
2018-05-23T23:50:03.636Z,953.71
2018-05-23T23:52:29.926Z,953.63
2018-05-23T23:54:56.220Z,953.57
2018-05-23T23:57:22.512Z,953.54
2018-05-23T23:59:48.802Z,953.52
